• Join FlightAware (Why Join?)
  • Login
  • US Flag 
10:40AM EDT


 

Airport Tracker/Info


-or-


 

Live Flight TrackerFlight Track Log ✈ UAL5915 ✈ 02-Mar-2014 ✈ KMOB - KORD

Flight Track Log - Related Links

Times and Time Zones

All times are in EST time to prevent confusion due to time zone crossing. See the UAL5915 flight status page for this flight to view local times or setup timezone preferences in your user account.

Time Position Orientation Groundspeed Altitude Reporting Facility
EST Latitude Longitude Course Direction KTS MPH feet Rate Location/Type
02:43PM 30.6614 -88.2197 North 170 196 1,900  Level Houston Center
02:44PM 30.6386 -88.1644 116° Southeast 218 251 3,100 1,500 Climbing Houston Center
02:45PM 30.6439 -88.0839 86° East 238 274 5,000 1,860 Climbing Houston Center
02:46PM 30.7039 -88.0303 38° Northeast 270 311 7,000 1,980 Climbing Houston Center
02:47PM 31.2285 -88.2289 North  Level Estimated
02:47PM 30.7906 -87.9869 23° Northeast 292 336 9,200  Level Houston Center
02:48PM 31.3360 -88.2261 North  Level Estimated
02:48PM 30.8728 -87.9706 10° North 299 344 10,700  Level Houston Center
02:49PM 30.9647 -87.9539 North 332 382 11,300 840 Climbing Houston Center
02:50PM 31.0633 -87.9364 North 360 414 12,500 1,200 Climbing Houston Center
02:51PM 31.1853 -87.9142 North 371 427 13,900 1,140 Climbing Houston Center
02:52PM 31.2964 -87.8950 North 371 427 14,900 960 Climbing Houston Center
02:53PM 31.3983 -87.8753 North 375 432 15,900 900 Climbing Houston Center
02:54PM 31.4967 -87.8581 North 381 438 16,800 840 Climbing Houston Center
02:55PM 31.6042 -87.8383 North 386 444 17,700 780 Climbing Houston Center
02:56PM 31.6992 -87.8172 11° North 380 437 18,200 720 Climbing Atlanta Center
02:57PM 31.8089 -87.7828 15° North 391 450 19,000 900 Climbing Atlanta Center
02:58PM 31.9183 -87.7481 15° North 402 463 20,100 1,080 Climbing Atlanta Center
02:59PM 32.0281 -87.7111 16° North 402 463 21,200 1,020 Climbing Atlanta Center
03:00PM 32.1397 -87.6764 15° North 402 463 22,200 960 Climbing Atlanta Center
03:01PM 32.2514 -87.6417 15° North 402 463 23,200 1,020 Climbing Atlanta Center
03:02PM 32.3650 -87.6044 15° North 407 468 24,300 1,020 Climbing Atlanta Center
03:03PM 32.4725 -87.5669 16° North 407 468 25,300 1,020 Climbing Atlanta Center
03:04PM 32.5822 -87.5269 17° North 407 468 26,400 1,080 Climbing Atlanta Center
03:05PM 32.6919 -87.4892 16° North 402 463 27,500 1,020 Climbing Atlanta Center
03:06PM 32.7994 -87.4539 15° North 402 463 28,500 900 Climbing Atlanta Center
03:07PM 32.9003 -87.4233 14° North 394 453 29,300 900 Climbing Atlanta Center
03:08PM 33.0142 -87.3831 17° North 400 460 30,300 1,020 Climbing Atlanta Center
03:09PM 33.1217 -87.3450 17° North 400 460 31,400 1,020 Climbing Atlanta Center
03:10PM 33.2289 -87.3119 14° North 400 460 32,400 900 Climbing Atlanta Center
03:11PM 33.3386 -87.2711 17° North 405 466 33,300 900 Climbing Atlanta Center
03:12PM 33.4458 -87.2353 16° North 405 466 34,300 840 Climbing Atlanta Center
03:13PM 33.5533 -87.1994 16° North 400 460 35,000 300 Climbing Atlanta Center
03:14PM 33.6669 -87.1611 16° North 405 466 35,000  Level Atlanta Center
03:15PM 33.7828 -87.1231 15° North 416 479 35,000  Level Atlanta Center
03:16PM 33.9050 -87.0797 16° North 430 495 35,000  Level Atlanta Center
03:17PM 34.0250 -87.0389 16° North 441 507 35,000  Level Atlanta Center
03:18PM 34.1469 -86.9981 15° North 441 507 35,000  Level Atlanta Center
03:19PM 34.2689 -86.9572 15° North 441 507 35,000  Level Atlanta Center
03:20PM 34.3889 -86.9158 16° North 441 507 35,000  Level Atlanta Center
03:21PM 34.5089 -86.8722 17° North 441 507 35,000  Level Atlanta Center
03:22PM 34.6308 -86.8333 15° North 441 507 35,000  Level Atlanta Center
03:23PM 34.7506 -86.7919 16° North 441 507 35,000  Level Atlanta Center
03:24PM 34.8747 -86.7478 16° North 441 507 35,000  Level Atlanta Center
03:25PM 34.9947 -86.7061 16° North 441 507 35,000  Level Atlanta Center
03:26PM 35.1603 -86.6511 15° North 457 526 35,000  Level Memphis Center
03:27PM 35.2808 -86.6075 16° North 452 520 35,000  Level Memphis Center
03:28PM 35.4025 -86.5644 16° North 452 520 35,000  Level Memphis Center
03:30PM 35.5242 -86.5225 16° North 452 520 35,000  Level Memphis Center
03:31PM 35.6469 -86.4792 16° North 452 520 35,000  Level Memphis Center
03:32PM 35.7708 -86.4356 16° North 453 521 35,000  Level Memphis Center
03:33PM 35.8947 -86.3908 16° North 457 526 35,000  Level Memphis Center
03:34PM 36.0192 -86.3453 16° North 458 527 35,000  Level Memphis Center
03:35PM 36.1667 -86.2928 16° North 466 536 35,000  Level Memphis Center
03:36PM 36.2919 -86.2475 16° North 467 537 35,000  Level Memphis Center
03:37PM 36.4169 -86.2019 16° North 467 537 35,000  Level Memphis Center
03:38PM 36.5417 -86.1575 16° North 467 537 35,000  Level Memphis Center
03:39PM 36.6675 -86.1111 16° North 467 537 35,000  Level Memphis Center
03:40PM 36.7914 -86.0661 16° North 464 534 35,000  Level Memphis Center
03:41PM 36.9031 -86.0261 16° North 429 494 35,000 300 Level Memphis Center
03:42PM 37.0128 -85.9925 14° North 409 471 35,700 900 Climbing Memphis Center
03:43PM 37.1361 -85.9847 North 383 441 36,900 600 Climbing Memphis Center
03:44PM 37.2417 -85.9767 North 378 435 37,000  Climbing Memphis Center
03:45PM 37.3531 -85.9669 North 390 449 37,000  Level Memphis Center
03:46PM 37.4675 -85.9558 North 400 460 37,000  Level Memphis Center
03:47PM 37.5853 -85.9461 North 416 479 37,000  Level Memphis Center
03:48PM 37.7047 -85.9358 North 423 487 37,000  Level Memphis Center
03:49PM 37.8683 -85.9217 North 429 494 37,000  Level Indianapolis Center
03:50PM 37.9900 -85.9103 North 431 496 37,000  Level Indianapolis Center
03:51PM 38.1106 -85.8986 North 435 501 37,000 -480 Level Indianapolis Center
03:52PM 38.2306 -85.8878 North 435 501 36,100 -540 Descending Indianapolis Center
03:53PM 38.3519 -85.8775 North 435 501 36,000 -60 Descending Indianapolis Center
03:54PM 38.4758 -85.8667 North 437 503 36,000  Level Indianapolis Center
03:55PM 38.6011 -85.8561 North 445 512 36,000 -180 Level Indianapolis Center
03:57PM 38.7461 -85.8419 North 446 513 35,700 -1,260 Descending Indianapolis Center
03:58PM 38.8692 -85.8164 North 448 516 33,500 -2,100 Descending Indianapolis Center
03:59PM 38.9986 -85.7797 12° North 469 540 31,400 -1,560 Descending Indianapolis Center
04:00PM 39.1278 -85.7683 North 472 543 30,400 -720 Descending Indianapolis Center
04:01PM 39.2567 -85.7606 North 469 540 30,000 -300 Descending Indianapolis Center
04:02PM 39.3831 -85.7522 North 464 534 29,900 -600 Descending Indianapolis Center
04:03PM 39.5375 -85.7431 North 462 532 28,800 -1,080 Descending Indianapolis Center
04:04PM 39.6678 -85.7339 North 467 537 27,800 -1,020 Descending Indianapolis Center
04:05PM 39.7983 -85.7253 North 469 540 26,800 -900 Descending Indianapolis Center
04:06PM 39.9272 -85.7167 North 471 542 26,000 -420 Descending Indianapolis Center
04:07PM 40.0556 -85.7081 North 470 541 26,000  Level Indianapolis Center
04:08PM 40.1836 -85.7006 North 469 540 26,000 -120 Level Indianapolis Center
04:09PM 40.3364 -85.6942 North 464 534 25,800 -660 Descending Indianapolis Center
04:10PM 40.4839 -85.7258 351° North 447 514 24,600 -840 Descending Chicago Center
04:11PM 40.6025 -85.7553 349° North 439 505 24,000 -900 Descending Chicago Center
04:12PM 40.6975 -85.8472 324° Northwest 392 451 22,800 -1,140 Descending Chicago Center
04:13PM 40.7756 -85.9411 318° Northwest 380 437 21,700 -1,080 Descending Chicago Center
04:14PM 40.8508 -86.0308 318° Northwest 367 422 20,600 -840 Descending Chicago Center
04:15PM 40.9264 -86.1211 318° Northwest 366 421 20,000 -300 Descending Chicago Center
04:16PM 41.0042 -86.2125 318° Northwest 371 427 20,000  Level Chicago Center
04:17PM 41.0792 -86.3044 317° Northwest 367 422 20,000  Level Chicago Center
04:18PM 41.1603 -86.3886 322° Northwest 372 428 20,000  Level Chicago Center
04:19PM 41.2508 -86.4594 330° Northwest 375 432 20,000 -900 Level Chicago Center
04:20PM 41.3572 -86.5483 328° Northwest 375 432 18,200 -1,740 Descending Chicago Center
04:21PM 41.4439 -86.6183 329° Northwest 367 422 16,500 -1,800 Descending Chicago Center
04:22PM 41.5244 -86.6844 328° Northwest 345 397 14,500 -2,040 Descending Chicago Center
04:23PM 41.6133 -86.7561 329° Northwest 342 394 12,400 -1,260 Descending Chicago Center
04:24PM 41.6969 -86.8006 338° Northwest 335 386 11,900 -720 Descending Chicago Center
04:25PM 41.8014 -86.8156 354° North 353 406 11,000 -540 Descending Chicago Center
04:27PM 41.8900 -86.8578 340° North 343 395 10,900 -240 Descending Chicago Center
04:28PM 41.9444 -86.9475 309° West 320 368 10,600 -480 Descending Chicago Center
04:29PM 41.9783 -87.0594 292° West 303 349 10,000 -300 Descending Chicago Center
04:30PM 41.9819 -87.1675 273° West 292 336 10,000 -360 Level Chicago Center
04:31PM 41.9825 -87.2681 270° West 240 276 9,300 -1,020 Descending Chicago Center
04:32PM 41.9828 -87.3542 270° West 232 267 7,900 -1,140 Descending Chicago Center
04:33PM 41.9822 -87.4514 270° West 242 278 7,000 -780 Descending Chicago Center
04:34PM 41.9833 -87.5425 271° West 245 282 6,400 -1,080 Descending Chicago Center
04:35PM 41.9833 -87.6392 270° West 243 280 4,800 -1,440 Descending Chicago Center
04:36PM 41.9833 -87.7333 270° West 221 254 3,200 -1,260 Descending Chicago TRACON
04:37PM 41.9833 -87.8000 270° West 160 184 2,200 -840 Descending Chicago TRACON
04:39PM 41.9828 -87.8850 270° West 130 150 800 -720 Descending Chicago Center